Time;durP1;ratioP1;P1;durP2;ratioP2;P2;SDS_P1;SDS_P2;PMS_P1;PMS_P2;Temp;Humidity;BMP_temperature;BMP_pressure;BME280_temperature;BME280_humidity;BME280_pressure;Samples;Min_cycle;Max_cycle;Signal;HPM_P1;HPM_P2
2021/01/29 00:01:50;;;;;;;13.73;5.00;;;-1.90;99.90;;;;;;5310012;27;20444;-69
2021/01/29 00:04:17;;;;;;;10.47;5.50;;;-1.90;99.90;;;;;;5308700;27;20114;-68
2021/01/29 00:06:44;;;;;;;11.80;5.93;;;-1.80;99.90;;;;;;5308836;27;20158;-69
2021/01/29 00:09:10;;;;;;;13.90;6.37;;;-1.80;99.90;;;;;;5308600;27;20420;-72
2021/01/29 00:11:37;;;;;;;15.63;6.60;;;-1.90;99.90;;;;;;5308712;27;20157;-71
2021/01/29 00:14:03;;;;;;;15.53;6.70;;;-1.90;99.90;;;;;;5309251;27;20135;-71
2021/01/29 00:16:30;;;;;;;11.97;6.13;;;-1.90;99.90;;;;;;5310101;27;20504;-71
2021/01/29 00:18:56;;;;;;;14.87;6.60;;;-1.90;99.90;;;;;;5312023;27;20163;-71
2021/01/29 00:21:23;;;;;;;11.77;5.93;;;-2.00;99.90;;;;;;5310192;27;20412;-72
2021/01/29 00:23:49;;;;;;;12.93;6.50;;;-2.00;99.90;;;;;;5310017;27;20114;-71
2021/01/29 00:26:16;;;;;;;14.73;6.33;;;-2.00;99.90;;;;;;5310153;27;20129;-70
2021/01/29 00:28:42;;;;;;;12.97;6.43;;;-2.00;99.90;;;;;;5310205;27;20194;-71
2021/01/29 00:31:09;;;;;;;15.23;6.37;;;-2.10;99.90;;;;;;5310697;27;20114;-71
2021/01/29 00:33:35;;;;;;;13.43;6.77;;;-2.10;99.90;;;;;;5310015;27;20166;-71
2021/01/29 00:36:02;;;;;;;13.63;7.00;;;-2.10;99.90;;;;;;5312015;27;20467;-70
2021/01/29 00:38:29;;;;;;;18.20;7.10;;;-2.10;99.90;;;;;;5309938;27;20121;-70
2021/01/29 00:40:55;;;;;;;15.33;7.33;;;-2.00;99.90;;;;;;5311850;27;20121;-71
2021/01/29 00:43:22;;;;;;;14.70;7.00;;;-2.10;99.90;;;;;;5310007;27;20141;-71
2021/01/29 00:45:48;;;;;;;17.80;8.10;;;-2.10;99.90;;;;;;5309872;27;20128;-70
2021/01/29 00:48:15;;;;;;;16.73;7.17;;;-2.10;99.90;;;;;;5309890;27;20113;-70
2021/01/29 00:50:42;;;;;;;17.63;7.47;;;-2.20;99.90;;;;;;5309887;27;20347;-70
2021/01/29 00:53:10;;;;;;;17.93;7.37;;;-2.30;99.90;;;;;;5310626;27;20133;-70
2021/01/29 00:55:36;;;;;;;16.07;7.40;;;-2.20;99.90;;;;;;5309966;27;20157;-71
2021/01/29 00:58:03;;;;;;;18.20;7.90;;;-2.20;99.90;;;;;;5309831;27;20122;-70
2021/01/29 01:00:30;;;;;;;15.37;6.93;;;-2.20;99.90;;;;;;5311970;27;20109;-70
2021/01/29 01:02:56;;;;;;;14.20;6.90;;;-2.20;99.90;;;;;;5309844;27;20110;-70
2021/01/29 01:05:24;;;;;;;16.47;7.10;;;-2.20;99.90;;;;;;5312047;27;20112;-70
2021/01/29 01:07:51;;;;;;;17.00;6.97;;;-2.20;99.90;;;;;;5309637;27;20179;-71
2021/01/29 01:10:19;;;;;;;15.70;5.97;;;-2.30;99.90;;;;;;5309913;27;20114;-70
2021/01/29 01:12:46;;;;;;;16.57;7.07;;;-2.30;99.90;;;;;;5309982;27;20160;-70
2021/01/29 01:15:17;;;;;;;14.33;6.93;;;-2.30;99.90;;;;;;5309555;27;20471;-71
2021/01/29 01:17:43;;;;;;;14.63;6.27;;;-2.40;99.90;;;;;;5290507;27;20378;-70
2021/01/29 01:20:14;;;;;;;15.10;5.83;;;-2.40;99.90;;;;;;5309481;27;20178;-70
2021/01/29 01:22:41;;;;;;;15.63;6.53;;;-2.40;99.90;;;;;;5310644;27;20155;-71
2021/01/29 01:25:08;;;;;;;16.03;6.53;;;-2.40;99.90;;;;;;5311045;27;20157;-70
2021/01/29 01:27:35;;;;;;;15.10;6.07;;;-2.50;99.90;;;;;;5311318;27;20318;-70
2021/01/29 01:30:04;;;;;;;16.00;6.47;;;-2.40;99.90;;;;;;5309366;27;20124;-71
2021/01/29 01:32:32;;;;;;;13.10;5.97;;;-2.40;99.90;;;;;;5309800;27;20145;-71
2021/01/29 01:34:59;;;;;;;13.30;6.43;;;-2.30;99.90;;;;;;5311821;27;20114;-71
2021/01/29 01:37:25;;;;;;;14.43;5.90;;;-2.30;99.90;;;;;;5311485;27;20444;-71
2021/01/29 01:39:52;;;;;;;12.23;5.83;;;-2.20;99.90;;;;;;5310837;27;20142;-71
2021/01/29 01:42:19;;;;;;;13.33;5.93;;;-2.30;99.90;;;;;;5309740;27;20391;-71
2021/01/29 01:44:45;;;;;;;15.73;6.40;;;-2.30;99.90;;;;;;5309582;27;20114;-71
2021/01/29 01:47:29;;;;;;;17.13;6.37;;;-2.20;99.90;;;;;;5310113;27;20113;-70
2021/01/29 01:50:05;;;;;;;11.47;5.87;;;-2.10;99.90;;;;;;5309493;27;20447;-71
2021/01/29 01:52:37;;;;;;;15.53;6.30;;;-2.10;99.90;;;;;;5309860;27;20535;-71
2021/01/29 01:55:03;;;;;;;16.53;6.60;;;-2.00;99.90;;;;;;5310236;27;20110;-70
2021/01/29 01:57:33;;;;;;;14.00;6.10;;;-2.00;99.90;;;;;;5311508;27;20110;-70
2021/01/29 02:00:09;;;;;;;13.77;5.60;;;-2.10;99.90;;;;;;5310472;27;20452;-71
2021/01/29 02:02:37;;;;;;;13.70;6.00;;;-2.00;99.90;;;;;;5311547;27;20114;-70
2021/01/29 02:05:10;;;;;;;14.53;5.93;;;-1.90;99.90;;;;;;5309346;27;20148;-70
2021/01/29 02:07:36;;;;;;;12.63;5.90;;;-1.90;99.90;;;;;;5309040;27;20161;-70
2021/01/29 02:10:04;;;;;;;13.43;6.30;;;-1.90;99.90;;;;;;5309386;27;20550;-70
2021/01/29 02:12:30;;;;;;;14.23;6.13;;;-1.80;99.90;;;;;;5306491;27;20159;-70
2021/01/29 02:14:57;;;;;;;13.20;5.47;;;-1.80;99.90;;;;;;5307437;27;20122;-72
2021/01/29 02:17:30;;;;;;;13.60;6.03;;;-1.70;99.90;;;;;;5307402;27;20125;-71
2021/01/29 02:20:32;;;;;;;12.70;6.20;;;-1.80;99.90;;;;;;5309475;27;20364;-72
2021/01/29 02:23:07;;;;;;;14.33;5.70;;;-1.70;99.90;;;;;;5241194;27;20137;-71
2021/01/29 02:25:40;;;;;;;12.20;5.40;;;-1.70;99.90;;;;;;5241560;27;20457;-71
2021/01/29 02:28:30;;;;;;;17.17;5.97;;;-1.60;99.90;;;;;;5242415;27;20155;-70
2021/01/29 02:31:07;;;;;;;13.67;5.67;;;-1.70;99.90;;;;;;5240815;27;20438;-70
2021/01/29 02:33:55;;;;;;;13.77;6.07;;;-1.70;99.90;;;;;;5242980;27;20210;-71
2021/01/29 02:37:06;;;;;;;13.10;6.47;;;-1.70;99.90;;;;;;5241285;27;20502;-71
2021/01/29 02:39:35;;;;;;;10.97;5.83;;;-1.70;99.90;;;;;;5177195;27;20163;-71
2021/01/29 02:42:16;;;;;;;13.80;5.73;;;-1.70;99.90;;;;;;5177697;27;20124;-71
2021/01/29 02:45:07;;;;;;;13.63;6.23;;;-1.60;99.90;;;;;;5179853;27;20519;-70
2021/01/29 02:47:43;;;;;;;11.50;5.40;;;-1.80;99.90;;;;;;5178498;27;20159;-71
2021/01/29 02:50:33;;;;;;;12.30;5.50;;;-1.70;99.90;;;;;;5177135;27;20112;-71
2021/01/29 02:53:24;;;;;;;15.77;6.30;;;-1.60;99.90;;;;;;5177523;27;20124;-72
2021/01/29 02:56:16;;;;;;;13.93;5.60;;;-1.60;99.90;;;;;;5177349;27;20140;-71
2021/01/29 02:58:55;;;;;;;13.80;5.90;;;-1.70;99.90;;;;;;5179670;27;20155;-71
2021/01/29 03:01:48;;;;;;;13.87;5.60;;;-1.50;99.90;;;;;;5223826;27;20148;-71
2021/01/29 03:04:40;;;;;;;12.47;5.60;;;-1.50;99.90;;;;;;5243111;27;20111;-71
2021/01/29 03:07:16;;;;;;;12.67;6.20;;;-1.60;99.90;;;;;;5241014;27;20167;-72
2021/01/29 03:10:05;;;;;;;10.73;5.40;;;-1.60;99.90;;;;;;5242141;27;20150;-70
2021/01/29 03:12:35;;;;;;;12.43;5.50;;;-1.60;99.90;;;;;;5248437;27;20115;-71
2021/01/29 03:15:11;;;;;;;14.10;6.30;;;-1.60;99.90;;;;;;5308897;27;20148;-71
2021/01/29 03:17:54;;;;;;;12.00;5.70;;;-1.60;99.90;;;;;;5309202;27;20113;-70
2021/01/29 03:20:35;;;;;;;11.17;5.40;;;-1.50;99.90;;;;;;5309000;27;20140;-71
2021/01/29 03:23:10;;;;;;;12.80;5.23;;;-1.50;99.90;;;;;;5308887;27;20113;-71
2021/01/29 03:25:42;;;;;;;13.30;5.30;;;-1.50;99.90;;;;;;5309015;27;20500;-71
2021/01/29 03:28:25;;;;;;;11.17;5.70;;;-1.50;99.90;;;;;;5311752;27;20115;-70
2021/01/29 03:30:56;;;;;;;12.13;5.17;;;-1.60;99.90;;;;;;5308856;27;20114;-70
2021/01/29 03:33:28;;;;;;;13.83;5.57;;;-1.50;99.90;;;;;;5311657;27;20447;-70
2021/01/29 03:36:01;;;;;;;10.37;5.27;;;-1.60;99.90;;;;;;5310612;27;20110;-70
2021/01/29 03:38:47;;;;;;;13.90;5.77;;;-1.60;99.90;;;;;;5311220;27;20110;-70
2021/01/29 03:41:24;;;;;;;10.47;5.50;;;-1.60;99.90;;;;;;5309426;27;20375;-70
2021/01/29 03:44:23;;;;;;;12.07;5.47;;;-1.60;99.90;;;;;;5310661;27;20124;-71
2021/01/29 03:47:19;;;;;;;14.17;5.70;;;-1.60;99.90;;;;;;5309098;27;20114;-71
2021/01/29 03:50:15;;;;;;;15.83;5.97;;;-1.60;99.90;;;;;;5310900;27;20303;-71
2021/01/29 03:53:14;;;;;;;14.13;5.70;;;-1.60;99.90;;;;;;5309383;27;20125;-71
2021/01/29 03:55:57;;;;;;;12.00;5.63;;;-1.50;99.90;;;;;;5241365;27;20145;-71
2021/01/29 03:58:38;;;;;;;11.73;5.77;;;-1.60;99.90;;;;;;5242465;27;20125;-71
2021/01/29 04:01:26;;;;;;;11.10;5.80;;;-1.60;99.90;;;;;;5243160;27;20119;-71
2021/01/29 04:03:58;;;;;;;10.33;5.33;;;-1.60;99.90;;;;;;5240783;27;20185;-70
2021/01/29 04:06:28;;;;;;;12.93;5.33;;;-1.60;99.90;;;;;;5242131;27;20133;-70
2021/01/29 04:09:11;;;;;;;13.57;5.57;;;-1.60;99.90;;;;;;5241420;27;20150;-71
2021/01/29 04:11:58;;;;;;;14.50;5.60;;;-1.60;99.90;;;;;;5243352;27;20172;-72
2021/01/29 04:14:49;;;;;;;10.17;5.37;;;-1.50;99.90;;;;;;5240253;27;20111;-71
2021/01/29 04:17:22;;;;;;;15.57;5.20;;;-1.40;99.90;;;;;;5240860;27;20419;-70
2021/01/29 04:19:53;;;;;;;10.67;5.50;;;-1.50;99.90;;;;;;5241042;27;20130;-70
2021/01/29 04:22:26;;;;;;;11.97;5.20;;;-1.50;99.90;;;;;;5243479;27;20123;-70
2021/01/29 04:25:24;;;;;;;10.73;5.40;;;-1.50;99.90;;;;;;5241338;27;20125;-69
2021/01/29 04:27:55;;;;;;;12.33;5.40;;;-1.50;99.90;;;;;;5240528;27;20192;-70
2021/01/29 04:30:33;;;;;;;8.87;5.00;;;-1.50;99.90;;;;;;5242443;27;20111;-70
2021/01/29 04:33:23;;;;;;;10.80;5.23;;;-1.60;99.90;;;;;;5300178;27;20122;-71
2021/01/29 04:35:51;;;;;;;13.63;5.03;;;-1.50;99.90;;;;;;5308384;27;20151;-71
2021/01/29 04:38:30;;;;;;;10.33;5.10;;;-1.50;99.90;;;;;;5310802;27;20183;-71
2021/01/29 04:41:08;;;;;;;11.17;5.53;;;-1.50;99.90;;;;;;5308703;27;20122;-71
2021/01/29 04:43:35;;;;;;;11.10;5.57;;;-1.40;99.90;;;;;;5310718;27;20423;-71
2021/01/29 04:46:27;;;;;;;11.67;5.40;;;-1.40;99.90;;;;;;5308608;27;20115;-71
2021/01/29 04:49:21;;;;;;;9.93;4.97;;;-1.50;99.90;;;;;;5310798;27;20156;-71
2021/01/29 04:52:19;;;;;;;11.13;5.27;;;-1.40;99.90;;;;;;5310711;27;20114;-70
2021/01/29 04:55:01;;;;;;;11.30;5.20;;;-1.40;99.90;;;;;;5308727;27;20149;-70
2021/01/29 04:57:52;;;;;;;8.87;5.20;;;-1.40;99.90;;;;;;5308627;27;20157;-71
2021/01/29 05:00:29;;;;;;;11.10;5.30;;;-1.50;99.90;;;;;;5310563;27;20345;-70
2021/01/29 05:03:30;;;;;;;12.47;5.37;;;-1.40;99.90;;;;;;5311834;27;20148;-70
2021/01/29 05:06:15;;;;;;;13.13;5.77;;;-1.40;99.90;;;;;;5311840;27;20156;-71
2021/01/29 05:09:22;;;;;;;10.40;5.43;;;-1.40;99.90;;;;;;5309347;27;20189;-71
2021/01/29 05:11:57;;;;;;;11.43;5.17;;;-1.40;99.90;;;;;;5241992;27;20130;-71
2021/01/29 05:14:46;;;;;;;10.67;5.67;;;-1.40;99.90;;;;;;5243781;27;20158;-71
2021/01/29 05:17:38;;;;;;;10.90;5.57;;;-1.40;99.90;;;;;;5244167;27;20418;-71
2021/01/29 05:20:10;;;;;;;9.07;5.30;;;-1.40;99.90;;;;;;5242103;27;20138;-71
2021/01/29 05:22:56;;;;;;;12.10;5.60;;;-1.40;99.90;;;;;;5241860;27;20157;-71
2021/01/29 05:25:47;;;;;;;12.17;5.83;;;-1.50;99.90;;;;;;5244030;27;20157;-70
2021/01/29 05:28:22;;;;;;;9.50;4.90;;;-1.40;99.90;;;;;;5244594;27;20173;-71
2021/01/29 05:31:16;;;;;;;12.43;5.17;;;-1.50;99.90;;;;;;5241613;27;20162;-71
2021/01/29 05:34:23;;;;;;;13.03;5.60;;;-1.50;99.90;;;;;;5244371;27;20232;-70
2021/01/29 05:36:53;;;;;;;9.70;5.03;;;-1.50;99.90;;;;;;5241471;27;20149;-70
2021/01/29 05:39:33;;;;;;;8.83;4.77;;;-1.50;99.90;;;;;;5240698;27;20174;-70
2021/01/29 05:42:05;;;;;;;9.87;5.40;;;-1.50;99.90;;;;;;5243414;27;20135;-71
2021/01/29 05:44:57;;;;;;;9.00;4.80;;;-1.40;99.90;;;;;;5241586;27;20156;-71
2021/01/29 05:47:36;;;;;;;9.60;4.40;;;-1.50;99.90;;;;;;5212482;27;20139;-71
2021/01/29 05:50:30;;;;;;;7.73;4.50;;;-1.40;99.90;;;;;;5242047;27;20150;-70
2021/01/29 05:53:02;;;;;;;12.90;5.17;;;-1.40;99.90;;;;;;5242340;27;20119;-71
2021/01/29 05:55:37;;;;;;;9.33;4.50;;;-1.40;99.90;;;;;;5243486;27;20114;-71
2021/01/29 05:58:31;;;;;;;9.73;4.23;;;-1.40;99.90;;;;;;5243623;27;20202;-71
2021/01/29 06:01:16;;;;;;;7.97;3.87;;;-1.40;99.90;;;;;;5240736;27;20473;-71
2021/01/29 06:04:00;;;;;;;7.93;4.50;;;-1.40;99.90;;;;;;5241404;27;20130;-71
2021/01/29 06:07:02;;;;;;;8.00;4.07;;;-1.40;99.90;;;;;;5243157;27;20129;-71
2021/01/29 06:09:41;;;;;;;7.17;4.17;;;-1.40;99.90;;;;;;5241309;27;20134;-72
2021/01/29 06:12:28;;;;;;;8.27;4.40;;;-1.30;99.90;;;;;;5241678;27;20165;-71
2021/01/29 06:15:07;;;;;;;8.40;4.40;;;-1.30;99.90;;;;;;5241618;27;20166;-72
2021/01/29 06:17:56;;;;;;;7.90;4.20;;;-1.30;99.90;;;;;;5241474;27;20157;-71
2021/01/29 06:20:53;;;;;;;7.13;4.07;;;-1.30;99.90;;;;;;5243671;27;20342;-71
2021/01/29 06:23:51;;;;;;;9.73;4.47;;;-1.30;99.90;;;;;;5244770;27;20128;-72
2021/01/29 06:26:47;;;;;;;7.33;4.10;;;-1.30;99.90;;;;;;5311347;27;20121;-71
2021/01/29 06:29:34;;;;;;;8.70;4.60;;;-1.20;99.90;;;;;;5309273;27;20152;-72
2021/01/29 06:32:22;;;;;;;7.73;3.60;;;-1.20;99.90;;;;;;5311337;27;20126;-71
2021/01/29 06:35:04;;;;;;;6.20;3.87;;;-1.30;99.90;;;;;;5311603;27;20164;-71
2021/01/29 06:37:39;;;;;;;6.83;3.93;;;-1.30;99.90;;;;;;5309136;27;20118;-71
2021/01/29 06:40:29;;;;;;;7.10;4.03;;;-1.30;99.90;;;;;;5309201;27;20166;-72
2021/01/29 06:43:10;;;;;;;6.07;3.80;;;-1.30;99.90;;;;;;5309169;27;20136;-73
2021/01/29 06:45:58;;;;;;;5.90;3.83;;;-1.30;99.90;;;;;;5309879;27;20113;-73
2021/01/29 06:48:59;;;;;;;8.00;4.13;;;-1.30;99.90;;;;;;5309268;27;20115;-72
2021/01/29 06:51:41;;;;;;;7.17;4.17;;;-1.30;99.90;;;;;;5309032;27;20114;-72
2021/01/29 06:54:34;;;;;;;7.07;4.20;;;-1.30;99.90;;;;;;5309167;27;20359;-72
2021/01/29 06:57:10;;;;;;;7.27;4.10;;;-1.30;99.90;;;;;;5308950;27;20117;-72
2021/01/29 07:00:15;;;;;;;6.60;4.13;;;-1.20;99.90;;;;;;5310781;27;20189;-73
2021/01/29 07:02:51;;;;;;;9.57;4.40;;;-1.30;99.90;;;;;;5309280;27;20144;-71
2021/01/29 07:05:48;;;;;;;9.07;4.53;;;-1.20;99.90;;;;;;5308961;27;20357;-70
2021/01/29 07:08:57;;;;;;;8.43;4.30;;;-1.20;99.90;;;;;;5309041;27;20336;-71
2021/01/29 07:11:48;;;;;;;7.27;4.57;;;-1.20;99.90;;;;;;5311440;27;20451;-71
2021/01/29 07:14:54;;;;;;;9.07;4.70;;;-1.10;99.90;;;;;;5309007;27;20127;-73
2021/01/29 07:17:38;;;;;;;8.63;4.30;;;-1.10;99.90;;;;;;5309114;27;20136;-72
2021/01/29 07:20:19;;;;;;;10.17;4.70;;;-1.10;99.90;;;;;;5309298;27;20400;-74
2021/01/29 07:23:28;;;;;;;6.73;4.30;;;-1.10;99.90;;;;;;5308984;27;20143;-73
2021/01/29 07:26:18;;;;;;;7.77;4.23;;;-1.20;99.90;;;;;;5241198;27;20119;-73
2021/01/29 07:28:44;;;;;;;6.67;4.17;;;-1.10;99.90;;;;;;5240913;27;20110;-74
2021/01/29 07:31:27;;;;;;;8.93;4.60;;;-1.10;99.90;;;;;;5241298;27;20127;-72
2021/01/29 07:34:32;;;;;;;7.77;4.27;;;-1.00;99.90;;;;;;5241007;27;20115;-72
2021/01/29 07:37:35;;;;;;;6.83;4.33;;;-1.10;99.90;;;;;;5241354;27;20119;-74
2021/01/29 07:40:31;;;;;;;8.50;4.13;;;-1.10;99.90;;;;;;5243074;27;20118;-72
2021/01/29 07:43:25;;;;;;;10.23;4.43;;;-1.10;99.90;;;;;;5242566;27;20119;-73
2021/01/29 07:46:21;;;;;;;9.07;4.50;;;-1.00;99.90;;;;;;5241091;27;20159;-73
2021/01/29 07:49:03;;;;;;;7.80;4.67;;;-1.00;99.90;;;;;;5241278;27;20481;-73
2021/01/29 07:51:59;;;;;;;8.83;4.47;;;-1.00;99.90;;;;;;5242926;27;20167;-73
2021/01/29 07:54:31;;;;;;;6.77;4.33;;;-1.00;99.90;;;;;;5240900;27;20199;-73
2021/01/29 07:57:06;;;;;;;7.73;4.00;;;-1.00;99.90;;;;;;5241380;27;20166;-73
2021/01/29 07:59:52;;;;;;;8.47;4.47;;;-0.90;99.90;;;;;;5240874;27;20122;-74
2021/01/29 08:02:57;;;;;;;8.57;4.33;;;-0.90;99.90;;;;;;5254923;27;20184;-74
2021/01/29 08:05:51;;;;;;;7.47;4.60;;;-0.90;99.90;;;;;;5310471;27;20149;-74
2021/01/29 08:08:22;;;;;;;10.67;4.67;;;-0.90;99.90;;;;;;5309593;27;20134;-73
2021/01/29 08:10:53;;;;;;;7.50;4.53;;;-1.00;99.90;;;;;;5308885;27;20113;-74
2021/01/29 08:13:31;;;;;;;9.03;4.40;;;-0.90;99.90;;;;;;5309069;27;20132;-71
2021/01/29 08:16:55;;;;;;;7.33;4.30;;;-0.90;99.90;;;;;;5308606;27;20124;-72
2021/01/29 08:19:55;;;;;;;8.10;4.40;;;-0.80;99.90;;;;;;5240795;27;20151;-71
2021/01/29 08:22:22;;;;;;;9.50;4.73;;;-1.00;99.90;;;;;;5235976;27;20142;-74
2021/01/29 08:25:03;;;;;;;9.20;4.93;;;-0.90;99.90;;;;;;5240424;27;20175;-73
2021/01/29 08:28:06;;;;;;;10.20;5.10;;;-0.90;99.90;;;;;;5238828;27;20181;-73
2021/01/29 08:30:48;;;;;;;7.27;4.33;;;-0.80;99.90;;;;;;5239838;27;20156;-73
2021/01/29 08:33:19;;;;;;;8.53;4.50;;;-0.80;99.90;;;;;;5240530;27;20169;-74
2021/01/29 08:36:08;;;;;;;6.93;4.40;;;-0.80;99.90;;;;;;5239494;27;20195;-74
2021/01/29 08:39:08;;;;;;;6.70;4.17;;;-0.70;99.90;;;;;;5240519;27;20191;-75
2021/01/29 08:42:06;;;;;;;8.23;4.57;;;-0.70;99.90;;;;;;5242051;27;20145;-73
2021/01/29 08:44:54;;;;;;;8.13;4.40;;;-0.70;99.90;;;;;;5242654;27;20398;-74
2021/01/29 08:47:35;;;;;;;8.47;4.33;;;-0.60;99.90;;;;;;5242894;27;20341;-73
2021/01/29 08:50:18;;;;;;;7.67;4.33;;;-0.50;99.90;;;;;;5273084;27;20152;-73
2021/01/29 08:53:06;;;;;;;7.93;4.17;;;-0.50;99.90;;;;;;5311958;27;20339;-73
2021/01/29 08:55:45;;;;;;;6.97;4.40;;;-0.60;99.90;;;;;;5312076;27;20125;-73
2021/01/29 08:58:29;;;;;;;9.50;4.40;;;-0.50;99.90;;;;;;5310470;27;20114;-73
2021/01/29 09:01:03;;;;;;;8.53;4.60;;;-0.50;99.90;;;;;;5310058;27;20178;-74
2021/01/29 09:03:37;;;;;;;8.33;4.67;;;-0.50;99.90;;;;;;5310532;27;20118;-73
2021/01/29 09:06:18;;;;;;;8.67;4.60;;;-0.50;99.90;;;;;;5311986;27;20164;-74
2021/01/29 09:08:45;;;;;;;8.83;4.63;;;-0.60;99.90;;;;;;5309808;27;20153;-74
2021/01/29 09:11:28;;;;;;;9.03;4.70;;;-0.50;99.90;;;;;;5309088;27;20110;-74
2021/01/29 09:13:59;;;;;;;9.20;4.70;;;-0.40;99.90;;;;;;5310137;27;20129;-73
2021/01/29 09:16:30;;;;;;;6.77;4.43;;;-0.40;99.90;;;;;;5309556;27;20432;-73
2021/01/29 09:19:04;;;;;;;8.20;4.57;;;-0.50;99.90;;;;;;5309736;27;20124;-73
2021/01/29 09:22:09;;;;;;;9.30;4.20;;;-0.40;99.90;;;;;;5311940;27;20118;-74
2021/01/29 09:24:46;;;;;;;7.17;4.17;;;-0.40;99.90;;;;;;5308424;27;20357;-73
2021/01/29 09:27:44;;;;;;;9.33;4.60;;;-0.50;99.90;;;;;;5311863;27;20158;-74
2021/01/29 09:30:48;;;;;;;8.20;4.70;;;-0.50;99.90;;;;;;5309696;27;20378;-74
2021/01/29 09:33:47;;;;;;;8.30;4.60;;;-0.50;99.90;;;;;;5310282;27;20123;-72
2021/01/29 09:36:22;;;;;;;8.30;4.83;;;-0.40;99.90;;;;;;5241752;27;20379;-73
2021/01/29 09:39:22;;;;;;;8.43;4.57;;;-0.50;99.90;;;;;;5241526;27;20336;-72
2021/01/29 09:42:03;;;;;;;10.07;4.60;;;-0.50;99.90;;;;;;5228361;27;20207;-73
2021/01/29 09:44:33;;;;;;;10.07;4.80;;;-0.40;99.90;;;;;;5241826;27;20113;-72
2021/01/29 09:47:03;;;;;;;7.50;4.37;;;-0.40;99.90;;;;;;5241467;27;20170;-72
2021/01/29 09:49:35;;;;;;;8.53;4.67;;;-0.30;99.90;;;;;;5243740;27;20164;-73
2021/01/29 09:52:26;;;;;;;9.33;4.90;;;-0.30;99.90;;;;;;5243747;27;20153;-74
2021/01/29 09:55:07;;;;;;;10.13;5.13;;;-0.50;99.90;;;;;;5241106;27;20155;-71
2021/01/29 09:57:38;;;;;;;8.70;5.10;;;-0.50;99.90;;;;;;5241346;27;20114;-73
2021/01/29 10:00:13;;;;;;;7.53;5.10;;;-0.60;99.90;;;;;;5241703;27;20177;-72
2021/01/29 10:03:12;;;;;;;9.10;4.83;;;-0.50;99.90;;;;;;5243817;27;20154;-73
2021/01/29 10:05:51;;;;;;;11.20;5.37;;;-0.50;99.90;;;;;;5243634;27;20123;-73
2021/01/29 10:08:29;;;;;;;9.83;5.40;;;-0.40;99.90;;;;;;5241425;27;20138;-72
2021/01/29 10:11:01;;;;;;;10.13;5.10;;;-0.40;99.90;;;;;;5243585;27;20111;-73
2021/01/29 10:13:47;;;;;;;10.83;5.87;;;-0.50;99.90;;;;;;5286133;27;20156;-73
2021/01/29 10:16:23;;;;;;;8.53;5.47;;;-0.50;99.90;;;;;;5311167;27;20137;-72
2021/01/29 10:19:12;;;;;;;8.87;5.33;;;-0.60;99.90;;;;;;5309592;27;20114;-73
2021/01/29 10:21:57;;;;;;;9.33;5.90;;;-0.60;99.90;;;;;;5309843;27;20128;-72
2021/01/29 10:24:43;;;;;;;11.30;5.60;;;-0.60;99.90;;;;;;5309673;27;20185;-72
2021/01/29 10:27:42;;;;;;;9.43;5.23;;;-0.60;99.90;;;;;;5309734;27;20118;-73
2021/01/29 10:30:43;;;;;;;10.90;5.67;;;-0.50;99.90;;;;;;5304124;27;20141;-72
2021/01/29 10:33:24;;;;;;;10.77;5.90;;;-0.60;99.90;;;;;;5290517;27;20434;-73
2021/01/29 10:36:01;;;;;;;9.23;5.20;;;-0.50;99.90;;;;;;5309061;27;20118;-72
2021/01/29 10:39:10;;;;;;;8.07;5.13;;;-0.60;99.90;;;;;;5311259;27;20110;-73
2021/01/29 10:41:59;;;;;;;8.53;5.30;;;-0.60;99.90;;;;;;5241380;27;20142;-73
2021/01/29 10:44:32;;;;;;;9.83;5.47;;;-0.50;99.90;;;;;;5241121;27;20153;-72
2021/01/29 10:47:23;;;;;;;10.47;5.90;;;-0.40;99.90;;;;;;5242493;27;20115;-74
2021/01/29 10:49:57;;;;;;;10.50;5.77;;;-0.40;99.90;;;;;;5241498;27;20150;-73
2021/01/29 10:52:33;;;;;;;11.27;5.77;;;-0.50;99.90;;;;;;5243171;27;20382;-72
2021/01/29 10:55:02;;;;;;;12.07;6.23;;;-0.50;99.90;;;;;;5242114;27;20114;-73
2021/01/29 10:57:46;;;;;;;9.10;5.83;;;-0.50;99.90;;;;;;5240487;27;20468;-73
2021/01/29 11:00:20;;;;;;;11.47;6.40;;;-0.60;99.90;;;;;;5242419;27;20153;-73
2021/01/29 11:02:59;;;;;;;8.53;5.37;;;-0.60;99.90;;;;;;5241020;27;20155;-72
2021/01/29 11:05:29;;;;;;;9.57;5.30;;;-0.50;99.90;;;;;;5240896;27;20128;-73
2021/01/29 11:08:21;;;;;;;11.33;6.27;;;-0.50;99.90;;;;;;5242444;27;20282;-73
2021/01/29 11:10:51;;;;;;;8.90;5.03;;;-0.40;99.90;;;;;;5242576;27;20141;-73
2021/01/29 11:13:26;;;;;;;9.83;5.60;;;-0.40;99.90;;;;;;5241576;27;20148;-73
2021/01/29 11:16:05;;;;;;;10.87;5.77;;;-0.40;99.90;;;;;;5240485;27;20125;-73
2021/01/29 11:18:37;;;;;;;11.20;5.67;;;-0.50;99.90;;;;;;5296089;27;20169;-72
2021/01/29 11:21:21;;;;;;;11.17;6.40;;;-0.60;99.90;;;;;;5308894;27;20374;-73
2021/01/29 11:23:54;;;;;;;9.80;5.47;;;-0.50;99.90;;;;;;5309146;27;20439;-73
2021/01/29 11:26:34;;;;;;;11.07;6.03;;;-0.50;99.90;;;;;;5311074;27;20151;-74
2021/01/29 11:29:24;;;;;;;10.73;5.67;;;-0.50;99.90;;;;;;5308742;27;20165;-73
2021/01/29 11:32:24;;;;;;;12.77;6.47;;;-0.40;99.90;;;;;;5309527;27;20381;-72
2021/01/29 11:35:24;;;;;;;10.13;6.23;;;-0.50;99.90;;;;;;5307970;27;20145;-73
2021/01/29 11:37:57;;;;;;;15.83;6.77;;;-0.40;99.90;;;;;;5308640;27;20417;-74
2021/01/29 11:40:24;;;;;;;11.33;6.30;;;-0.40;99.90;;;;;;5310445;27;20193;-72
2021/01/29 11:43:18;;;;;;;13.27;6.47;;;-0.50;99.90;;;;;;5311043;27;20124;-72
2021/01/29 11:45:51;;;;;;;11.13;6.10;;;-0.50;99.90;;;;;;5310250;27;20173;-72
2021/01/29 11:48:28;;;;;;;9.93;6.50;;;-0.50;99.90;;;;;;5310901;27;20108;-72
2021/01/29 11:51:06;;;;;;;10.50;6.13;;;-0.50;99.90;;;;;;5311104;27;20122;-73
2021/01/29 11:53:47;;;;;;;10.60;5.97;;;-0.50;99.90;;;;;;5311254;27;20110;-73
2021/01/29 11:56:37;;;;;;;9.97;6.10;;;-0.50;99.90;;;;;;5310792;27;20181;-73
2021/01/29 11:59:42;;;;;;;11.43;5.97;;;-0.30;99.90;;;;;;5309450;27;20192;-73
2021/01/29 12:02:08;;;;;;;13.73;6.23;;;-0.40;99.90;;;;;;5240455;27;20136;-73
2021/01/29 12:04:39;;;;;;;11.90;6.40;;;-0.30;99.90;;;;;;5240996;27;20386;-73
2021/01/29 12:07:32;;;;;;;11.57;6.43;;;-0.30;99.90;;;;;;5241292;27;20126;-72
2021/01/29 12:10:14;;;;;;;13.50;5.97;;;-0.30;99.90;;;;;;5243285;27;20162;-73
2021/01/29 12:13:00;;;;;;;11.27;6.67;;;-0.40;99.90;;;;;;5243914;27;20135;-73
2021/01/29 12:15:53;;;;;;;13.00;7.13;;;-0.30;99.90;;;;;;5242908;27;20399;-73
2021/01/29 12:18:23;;;;;;;12.87;6.83;;;-0.30;99.90;;;;;;5243985;27;20123;-72
2021/01/29 12:20:50;;;;;;;13.90;6.60;;;-0.30;99.90;;;;;;5241998;27;20121;-74
2021/01/29 12:24:08;;;;;;;12.57;6.63;;;-0.30;99.90;;;;;;5242108;27;20174;-73
2021/01/29 12:26:56;;;;;;;12.40;6.77;;;-0.30;99.90;;;;;;5179105;27;20150;-73
2021/01/29 12:29:23;;;;;;;11.27;6.63;;;-0.40;99.90;;;;;;5178694;27;20138;-73
2021/01/29 12:32:11;;;;;;;14.33;6.80;;;-0.40;99.90;;;;;;5178535;27;20124;-71
2021/01/29 12:34:46;;;;;;;12.50;6.83;;;-0.40;99.90;;;;;;5180791;27;20112;-73
2021/01/29 12:37:18;;;;;;;11.57;6.77;;;-0.50;99.90;;;;;;5178597;27;20421;-74
2021/01/29 12:40:00;;;;;;;13.40;7.20;;;-0.40;99.90;;;;;;5245010;27;20445;-73
2021/01/29 12:42:46;;;;;;;13.47;7.27;;;-0.40;99.90;;;;;;5243237;27;20427;-73
2021/01/29 12:45:27;;;;;;;13.73;7.40;;;-0.40;99.90;;;;;;5242221;27;20116;-73
2021/01/29 12:47:55;;;;;;;12.93;6.93;;;-0.40;99.90;;;;;;5241964;27;20426;-73
2021/01/29 12:50:52;;;;;;;12.80;7.00;;;-0.40;99.90;;;;;;5242245;27;20134;-73
2021/01/29 12:53:41;;;;;;;12.83;7.53;;;-0.40;99.90;;;;;;5244255;27;20178;-73
2021/01/29 12:56:21;;;;;;;13.43;7.20;;;-0.40;99.90;;;;;;5244753;27;20126;-73
2021/01/29 12:58:53;;;;;;;14.37;7.20;;;-0.40;99.90;;;;;;5241777;27;20139;-74
2021/01/29 13:01:35;;;;;;;14.50;7.53;;;-0.40;99.90;;;;;;5251375;27;20141;-73
2021/01/29 13:04:23;;;;;;;10.77;6.90;;;-0.40;99.90;;;;;;5309746;27;20132;-73
2021/01/29 13:07:16;;;;;;;14.33;7.17;;;-0.30;99.90;;;;;;5309737;27;20173;-73
2021/01/29 13:10:14;;;;;;;13.20;7.27;;;-0.40;99.90;;;;;;5310281;27;20500;-73
2021/01/29 13:13:08;;;;;;;12.20;7.37;;;-0.40;99.90;;;;;;5310585;27;20130;-73
2021/01/29 13:15:59;;;;;;;11.57;7.13;;;-0.30;99.90;;;;;;5309658;27;20125;-73
2021/01/29 13:18:54;;;;;;;11.80;7.03;;;-0.30;99.90;;;;;;5309159;27;20387;-73
2021/01/29 13:21:46;;;;;;;13.50;7.17;;;-0.20;99.90;;;;;;5311422;27;20125;-72
2021/01/29 13:24:33;;;;;;;14.57;7.30;;;-0.20;99.90;;;;;;5312033;27;20156;-73
2021/01/29 13:27:06;;;;;;;11.47;7.30;;;0.00;99.90;;;;;;5311641;27;20109;-73
2021/01/29 13:29:33;;;;;;;11.40;7.00;;;0.00;99.90;;;;;;5291121;27;20124;-74
2021/01/29 13:32:23;;;;;;;11.40;6.53;;;0.00;99.90;;;;;;5309536;27;20114;-73
2021/01/29 13:34:50;;;;;;;12.03;6.60;;;0.00;99.90;;;;;;5310000;27;20114;-73
2021/01/29 13:37:27;;;;;;;13.40;6.80;;;0.00;99.90;;;;;;5309341;27;20114;-73
2021/01/29 13:40:15;;;;;;;13.47;6.83;;;0.20;99.90;;;;;;5310802;27;20251;-73
2021/01/29 13:42:43;;;;;;;13.37;7.40;;;0.30;99.90;;;;;;5309465;27;20113;-73
2021/01/29 13:45:31;;;;;;;13.53;7.17;;;0.30;99.90;;;;;;5309533;27;20154;-73
2021/01/29 13:48:29;;;;;;;12.47;6.70;;;0.30;99.90;;;;;;5309492;27;20113;-73
2021/01/29 13:51:16;;;;;;;11.43;6.33;;;0.20;99.90;;;;;;5309121;27;20156;-73
2021/01/29 13:53:43;;;;;;;10.90;6.47;;;-0.10;99.90;;;;;;5309203;27;20125;-74